Time;durP1;ratioP1;P1;durP2;ratioP2;P2;SDS_P1;SDS_P2;PMS_P1;PMS_P2;Temp;Humidity;BMP_temperature;BMP_pressure;BME280_temperature;BME280_humidity;BME280_pressure;Samples;Min_cycle;Max_cycle;Signal;HPM_P1;HPM_P2
2021/05/28 02:21:40;;;;;;;2.95;0.80;;;12.60;69.50;;;;;;2339381;54;21045;-65
2021/05/28 02:24:11;;;;;;;2.40;1.10;;;12.60;70.80;;;;;;2339055;54;20929;-66
2021/05/28 02:26:39;;;;;;;1.90;0.95;;;12.50;70.80;;;;;;2338799;54;21405;-67
2021/05/28 02:29:06;;;;;;;2.37;1.00;;;12.50;71.00;;;;;;2342679;53;20967;-66
2021/05/28 02:31:33;;;;;;;2.28;1.12;;;12.50;70.90;;;;;;2339213;54;21002;-65
2021/05/28 02:33:59;;;;;;;2.47;1.27;;;12.40;70.90;;;;;;2338706;54;20965;-65
2021/05/28 02:36:25;;;;;;;2.00;1.00;;;12.40;71.00;;;;;;2584337;52;20966;-65
2021/05/28 02:38:52;;;;;;;2.35;1.30;;;12.40;71.10;;;;;;2339068;54;20933;-66
2021/05/28 02:41:18;;;;;;;3.33;1.05;;;12.40;71.10;;;;;;2338463;54;21001;-65
2021/05/28 02:43:44;;;;;;;3.03;1.25;;;12.40;71.10;;;;;;2340181;54;20957;-66
2021/05/28 02:46:11;;;;;;;2.83;1.42;;;12.40;71.10;;;;;;2337989;54;20941;-65
2021/05/28 02:48:37;;;;;;;3.05;1.40;;;12.40;71.10;;;;;;2339090;54;20933;-65
2021/05/28 02:51:04;;;;;;;2.95;1.30;;;12.40;71.20;;;;;;2338847;54;20963;-65
2021/05/28 02:53:34;;;;;;;2.47;1.20;;;12.30;71.10;;;;;;2338896;54;20941;-66
2021/05/28 02:56:03;;;;;;;3.30;1.42;;;12.30;71.20;;;;;;2583687;53;21021;-65
2021/05/28 02:58:30;;;;;;;2.62;1.30;;;12.30;71.00;;;;;;2334720;54;21473;-66
2021/05/28 03:00:56;;;;;;;2.60;1.27;;;12.30;71.10;;;;;;2338750;54;21033;-66
2021/05/28 03:03:24;;;;;;;2.65;1.17;;;12.30;71.10;;;;;;2339046;54;21029;-66
2021/05/28 03:05:50;;;;;;;2.60;1.23;;;12.30;71.00;;;;;;2338522;54;20949;-65
2021/05/28 03:08:17;;;;;;;2.70;1.42;;;12.30;71.00;;;;;;2338343;54;21001;-66
2021/05/28 03:10:47;;;;;;;2.80;1.48;;;12.30;71.00;;;;;;2338818;54;20944;-66
2021/05/28 03:13:14;;;;;;;2.62;1.37;;;12.30;70.90;;;;;;2583857;53;21508;-65
2021/05/28 03:15:40;;;;;;;2.47;1.35;;;12.30;70.80;;;;;;2339384;54;21001;-66
2021/05/28 03:18:14;;;;;;;2.70;1.40;;;12.20;70.50;;;;;;2338880;54;21004;-67
2021/05/28 03:20:46;;;;;;;2.25;1.20;;;12.20;70.50;;;;;;2338420;54;21735;-65
2021/05/28 03:23:13;;;;;;;3.15;1.70;;;12.20;70.50;;;;;;2338267;54;21542;-66
2021/05/28 03:25:39;;;;;;;2.40;1.23;;;12.20;70.60;;;;;;2578353;52;21480;-66
2021/05/28 03:28:06;;;;;;;2.83;1.40;;;12.10;70.60;;;;;;2339054;54;21425;-65
2021/05/28 03:30:32;;;;;;;3.12;1.50;;;12.10;70.60;;;;;;2584244;53;21783;-66
2021/05/28 03:32:58;;;;;;;3.22;1.80;;;12.10;70.40;;;;;;2338709;54;20969;-66
2021/05/28 03:35:25;;;;;;;3.12;1.60;;;12.10;70.30;;;;;;2338202;54;20979;-66
2021/05/28 03:37:51;;;;;;;3.45;1.90;;;12.00;71.00;;;;;;2338202;54;20945;-65
2021/05/28 03:40:17;;;;;;;4.72;2.10;;;12.00;70.40;;;;;;2338761;54;20950;-65
2021/05/28 03:42:46;;;;;;;4.03;2.05;;;12.00;70.50;;;;;;2339014;54;21000;-66
2021/05/28 03:45:31;;;;;;;3.62;2.17;;;12.00;70.50;;;;;;2338367;54;20996;-66
2021/05/28 03:47:57;;;;;;;3.20;2.03;;;12.00;70.20;;;;;;2338652;54;20941;-66
2021/05/28 03:50:26;;;;;;;3.12;1.70;;;11.90;70.50;;;;;;2457104;53;20977;-66
2021/05/28 03:52:53;;;;;;;3.00;1.40;;;11.90;70.70;;;;;;2338855;54;20951;-66
2021/05/28 03:55:19;;;;;;;3.83;1.65;;;11.90;70.80;;;;;;2339182;54;20962;-66
2021/05/28 03:57:46;;;;;;;2.78;1.50;;;11.90;70.80;;;;;;2336736;54;20926;-66
2021/05/28 04:00:24;;;;;;;3.28;1.42;;;11.90;70.90;;;;;;2581836;53;21668;-66
2021/05/28 04:02:50;;;;;;;3.25;1.60;;;11.90;71.00;;;;;;2341288;53;21023;-67
2021/05/28 04:05:17;;;;;;;2.97;1.45;;;11.90;71.00;;;;;;2336825;54;20994;-65
2021/05/28 04:07:44;;;;;;;5.00;1.48;;;11.90;71.00;;;;;;2319721;54;20982;-65
2021/05/28 04:10:11;;;;;;;2.83;1.60;;;11.90;71.10;;;;;;2334115;54;20925;-67
2021/05/28 04:12:37;;;;;;;3.90;1.80;;;11.90;71.20;;;;;;2341024;54;20957;-66
2021/05/28 04:15:05;;;;;;;2.67;1.50;;;11.90;71.30;;;;;;2339739;54;20946;-66
2021/05/28 04:17:31;;;;;;;2.97;1.48;;;11.90;71.40;;;;;;2336978;54;20925;-65
2021/05/28 04:19:58;;;;;;;3.05;1.60;;;11.90;71.30;;;;;;2340741;54;21033;-65
2021/05/28 04:22:24;;;;;;;2.70;1.23;;;11.90;71.30;;;;;;2335709;54;21422;-66
2021/05/28 04:24:50;;;;;;;3.00;1.50;;;11.90;71.30;;;;;;2583999;52;21532;-66
2021/05/28 04:27:20;;;;;;;3.10;1.40;;;11.90;71.10;;;;;;2338674;54;20917;-66
2021/05/28 04:29:46;;;;;;;2.85;1.70;;;11.90;71.00;;;;;;2338743;54;20993;-66
2021/05/28 04:32:12;;;;;;;3.30;1.73;;;11.90;71.00;;;;;;2338541;54;20930;-66
2021/05/28 04:34:39;;;;;;;3.47;1.70;;;11.90;70.90;;;;;;2338866;54;20942;-66
2021/05/28 04:37:05;;;;;;;4.10;1.67;;;11.90;70.90;;;;;;2338647;54;21096;-65
2021/05/28 04:39:32;;;;;;;2.70;1.42;;;11.90;70.90;;;;;;2338704;54;20989;-65
2021/05/28 04:41:58;;;;;;;3.10;1.67;;;11.90;71.00;;;;;;2339864;54;20927;-66
2021/05/28 04:44:25;;;;;;;3.15;1.83;;;11.90;71.00;;;;;;2336933;54;20997;-66
2021/05/28 04:46:52;;;;;;;3.15;1.60;;;11.90;71.00;;;;;;2338729;54;20925;-65
2021/05/28 04:49:20;;;;;;;3.30;1.40;;;11.90;71.00;;;;;;2338661;54;21025;-66
2021/05/28 04:51:49;;;;;;;2.83;1.42;;;11.90;71.20;;;;;;2339285;54;20949;-66
2021/05/28 04:54:15;;;;;;;2.95;1.40;;;11.90;71.30;;;;;;2584079;52;21017;-66
2021/05/28 04:56:42;;;;;;;2.55;1.60;;;11.90;71.40;;;;;;2339354;54;20957;-67
2021/05/28 04:59:11;;;;;;;3.00;1.60;;;11.90;71.50;;;;;;2337014;54;21941;-65
2021/05/28 05:01:37;;;;;;;3.25;1.62;;;11.90;71.60;;;;;;2315345;54;20961;-65
2021/05/28 05:04:06;;;;;;;2.75;1.62;;;11.90;71.70;;;;;;2346955;54;20995;-66
2021/05/28 05:06:32;;;;;;;2.87;1.52;;;11.90;71.70;;;;;;2329156;54;20985;-66
2021/05/28 05:08:58;;;;;;;3.67;1.92;;;12.00;71.90;;;;;;2338974;54;21030;-65
2021/05/28 05:11:28;;;;;;;3.50;2.20;;;12.00;72.10;;;;;;2583788;52;21029;-65
2021/05/28 05:13:54;;;;;;;3.20;1.90;;;12.00;72.20;;;;;;2338152;54;21454;-66
2021/05/28 05:16:22;;;;;;;5.07;2.28;;;12.10;72.50;;;;;;2338520;54;21013;-65
2021/05/28 05:18:58;;;;;;;3.33;2.22;;;12.10;72.60;;;;;;2342322;54;21413;-65
2021/05/28 05:21:24;;;;;;;3.87;2.20;;;12.20;72.80;;;;;;2333872;54;21080;-66
2021/05/28 05:23:54;;;;;;;4.55;2.70;;;12.20;72.90;;;;;;2338618;54;21734;-66
2021/05/28 05:26:21;;;;;;;4.53;2.65;;;12.20;73.00;;;;;;2582233;53;21070;-66
2021/05/28 05:28:48;;;;;;;3.80;2.40;;;12.30;73.10;;;;;;2335847;54;21021;-68
2021/05/28 05:31:14;;;;;;;4.10;2.40;;;12.30;73.10;;;;;;2583848;52;20954;-66
2021/05/28 05:33:40;;;;;;;4.32;2.53;;;12.40;73.20;;;;;;2338324;54;21908;-65
2021/05/28 05:36:07;;;;;;;4.30;2.42;;;12.40;73.30;;;;;;2583493;52;20949;-66
2021/05/28 05:38:33;;;;;;;3.87;2.35;;;12.50;73.30;;;;;;2338807;54;20946;-66
2021/05/28 05:41:00;;;;;;;5.78;2.72;;;12.50;73.30;;;;;;2394064;52;20962;-66
2021/05/28 05:43:27;;;;;;;4.05;2.40;;;12.60;73.40;;;;;;2583757;52;20996;-66
2021/05/28 05:45:53;;;;;;;3.97;2.37;;;12.60;73.40;;;;;;2338741;54;20966;-65
2021/05/28 05:48:20;;;;;;;4.12;2.03;;;12.60;73.30;;;;;;2338590;54;20982;-66
2021/05/28 05:50:46;;;;;;;3.90;2.60;;;12.70;73.40;;;;;;2584130;53;20973;-66
2021/05/28 05:53:13;;;;;;;4.07;2.62;;;12.70;73.50;;;;;;2497481;52;20957;-66
2021/05/28 05:55:39;;;;;;;4.50;2.75;;;12.80;73.60;;;;;;2338301;54;20973;-66
2021/05/28 05:58:05;;;;;;;3.65;2.45;;;12.80;73.70;;;;;;2341135;54;20915;-65
2021/05/28 06:00:32;;;;;;;3.42;2.37;;;12.90;73.80;;;;;;2335892;54;20957;-66
2021/05/28 06:02:58;;;;;;;3.85;2.35;;;12.90;73.80;;;;;;2335943;54;20931;-66
2021/05/28 06:05:24;;;;;;;4.35;2.83;;;13.00;73.80;;;;;;2581322;53;21484;-66
2021/05/28 06:07:53;;;;;;;4.43;2.40;;;13.00;73.70;;;;;;2340448;53;20934;-66
2021/05/28 06:10:19;;;;;;;3.78;2.65;;;13.10;73.80;;;;;;2340364;54;21021;-66
2021/05/28 06:12:46;;;;;;;4.57;2.35;;;13.20;74.10;;;;;;2577779;53;20971;-66
2021/05/28 06:15:15;;;;;;;3.53;2.50;;;13.20;74.10;;;;;;2334974;54;20986;-66
2021/05/28 06:17:41;;;;;;;4.05;2.65;;;13.30;74.20;;;;;;2339123;54;20981;-66
2021/05/28 06:20:10;;;;;;;3.53;2.15;;;13.30;74.30;;;;;;2551669;53;21514;-65
2021/05/28 06:22:38;;;;;;;4.40;2.87;;;13.40;74.50;;;;;;2338284;54;20966;-66
2021/05/28 06:25:05;;;;;;;5.95;2.65;;;13.50;74.70;;;;;;2339198;54;21028;-66
2021/05/28 06:27:31;;;;;;;4.10;2.60;;;13.60;74.80;;;;;;2338733;54;20921;-66
2021/05/28 06:29:58;;;;;;;4.07;2.87;;;13.70;74.90;;;;;;2584112;52;21690;-65
2021/05/28 06:32:25;;;;;;;4.93;2.80;;;13.70;75.00;;;;;;2334344;54;20950;-65
2021/05/28 06:34:51;;;;;;;4.20;2.92;;;13.80;75.20;;;;;;2338690;54;20941;-66
2021/05/28 06:37:17;;;;;;;5.93;3.60;;;13.90;75.40;;;;;;2338961;54;20948;-66
2021/05/28 06:39:43;;;;;;;5.07;3.60;;;14.00;75.60;;;;;;2339118;54;20980;-66
2021/05/28 06:42:10;;;;;;;4.85;3.58;;;14.10;75.70;;;;;;2338709;54;20950;-66
2021/05/28 06:44:37;;;;;;;4.65;3.05;;;14.20;75.80;;;;;;2434184;52;21726;-66
2021/05/28 06:47:03;;;;;;;4.60;3.28;;;14.30;75.90;;;;;;2340131;54;21365;-67
2021/05/28 06:49:29;;;;;;;4.20;2.90;;;14.40;76.00;;;;;;2339814;53;21771;-66
2021/05/28 06:51:56;;;;;;;4.00;2.75;;;14.50;76.10;;;;;;2342754;54;21937;-66
2021/05/28 06:54:22;;;;;;;5.40;2.92;;;14.60;76.30;;;;;;2458649;53;20988;-66
2021/05/28 06:56:49;;;;;;;6.07;2.75;;;14.70;76.50;;;;;;2338520;54;20930;-67
2021/05/28 06:59:15;;;;;;;3.80;2.58;;;14.90;76.90;;;;;;2584426;52;21681;-67
2021/05/28 07:01:42;;;;;;;6.18;3.03;;;15.00;77.50;;;;;;2583921;53;20986;-69
2021/05/28 07:04:08;;;;;;;4.18;2.65;;;15.20;77.70;;;;;;2338773;54;20997;-66
2021/05/28 07:06:35;;;;;;;5.05;2.87;;;15.30;77.80;;;;;;2584046;52;20933;-66
2021/05/28 07:09:01;;;;;;;4.15;2.67;;;15.50;77.90;;;;;;2338471;54;20909;-66
2021/05/28 07:11:33;;;;;;;4.25;2.75;;;15.70;78.00;;;;;;2339828;54;20982;-69
2021/05/28 07:14:00;;;;;;;6.12;3.40;;;15.90;77.70;;;;;;2336736;54;20937;-67
2021/05/28 07:16:28;;;;;;;5.05;3.45;;;16.10;78.30;;;;;;2342855;53;21769;-66
2021/05/28 07:18:54;;;;;;;5.53;3.25;;;16.20;77.90;;;;;;2337758;54;20938;-70
2021/05/28 07:21:23;;;;;;;5.22;3.17;;;16.40;77.50;;;;;;2338255;54;21018;-72
2021/05/28 07:23:49;;;;;;;4.93;3.30;;;16.50;77.10;;;;;;2583886;53;20922;-68
2021/05/28 07:26:16;;;;;;;4.93;3.37;;;16.60;77.10;;;;;;2418169;53;20979;-67
2021/05/28 07:28:42;;;;;;;4.80;3.50;;;16.70;76.80;;;;;;2505158;54;21086;-67
2021/05/28 07:31:09;;;;;;;6.30;3.22;;;16.80;76.60;;;;;;2573978;52;20917;-67
2021/05/28 07:33:37;;;;;;;4.47;3.00;;;16.90;76.40;;;;;;2338556;54;21003;-70
2021/05/28 07:36:08;;;;;;;5.18;3.53;;;17.00;76.10;;;;;;2400687;53;20944;-66
2021/05/28 07:38:34;;;;;;;4.95;3.47;;;17.10;75.80;;;;;;2338766;54;20942;-66
2021/05/28 07:41:01;;;;;;;5.07;3.60;;;17.10;75.60;;;;;;2338443;54;21009;-66
2021/05/28 07:43:27;;;;;;;7.12;3.35;;;17.20;75.40;;;;;;2583936;53;20969;-70
2021/05/28 07:45:58;;;;;;;5.62;3.55;;;17.30;75.20;;;;;;2338252;54;20952;-69
2021/05/28 07:48:25;;;;;;;4.93;3.37;;;17.30;75.00;;;;;;2567473;52;21763;-67
2021/05/28 07:50:58;;;;;;;6.68;3.37;;;17.40;75.00;;;;;;2340634;54;20987;-67
2021/05/28 07:53:24;;;;;;;;;;;17.40;74.80;;;;;;2583686;53;21085;-68
2021/05/28 07:55:52;;;;;;;5.00;3.15;;;17.50;73.60;;;;;;2340357;54;20115;-68
2021/05/28 07:58:18;;;;;;;3.85;2.72;;;17.60;74.90;;;;;;2316043;54;21030;-68
2021/05/28 08:00:44;;;;;;;6.55;3.15;;;17.60;75.00;;;;;;2338252;54;20928;-68
2021/05/28 08:03:10;;;;;;;4.60;3.08;;;17.60;75.00;;;;;;2562673;53;21776;-65
2021/05/28 08:05:37;;;;;;;4.82;3.53;;;17.70;74.80;;;;;;2341313;54;20943;-67
2021/05/28 08:08:04;;;;;;;6.32;3.55;;;17.80;74.70;;;;;;2581647;53;21919;-68
2021/05/28 08:10:30;;;;;;;5.03;3.10;;;17.80;74.50;;;;;;2340981;54;20979;-71
2021/05/28 08:12:56;;;;;;;5.30;3.08;;;17.90;74.60;;;;;;2340939;53;21029;-68
2021/05/28 08:15:23;;;;;;;5.90;4.00;;;18.00;74.90;;;;;;2339107;54;20965;-69
2021/05/28 08:17:50;;;;;;;6.45;4.37;;;18.00;74.90;;;;;;2583849;53;21073;-72
2021/05/28 08:20:16;;;;;;;5.65;3.70;;;18.10;74.70;;;;;;2334816;54;21439;-69
2021/05/28 08:22:44;;;;;;;5.95;4.05;;;18.20;74.80;;;;;;2338537;54;20933;-68
2021/05/28 08:25:11;;;;;;;6.28;4.15;;;18.30;74.80;;;;;;2338971;54;21000;-67
2021/05/28 08:27:37;;;;;;;5.90;4.10;;;18.40;74.90;;;;;;2338951;54;20942;-69
2021/05/28 08:30:05;;;;;;;4.68;3.50;;;18.50;75.00;;;;;;2338447;54;21072;-69
2021/05/28 08:32:31;;;;;;;6.07;4.20;;;18.50;74.70;;;;;;2337809;54;20997;-67
2021/05/28 08:34:58;;;;;;;5.87;3.65;;;18.60;74.70;;;;;;2338084;54;20953;-67
2021/05/28 08:37:24;;;;;;;5.87;3.97;;;18.70;74.50;;;;;;2583678;53;21021;-69
2021/05/28 08:39:50;;;;;;;5.37;3.62;;;18.80;74.50;;;;;;2338695;54;20945;-67
2021/05/28 08:42:20;;;;;;;6.60;3.70;;;18.80;74.30;;;;;;2338298;54;21053;-69
2021/05/28 08:44:50;;;;;;;5.78;3.72;;;18.90;73.80;;;;;;2338788;54;20985;-67
2021/05/28 08:47:16;;;;;;;5.87;3.90;;;19.00;73.90;;;;;;2338402;54;21096;-66
2021/05/28 08:49:49;;;;;;;7.10;4.00;;;19.00;73.80;;;;;;2338843;54;21386;-69
2021/05/28 08:52:19;;;;;;;5.97;3.67;;;19.10;72.60;;;;;;2338668;54;20930;-69
2021/05/28 08:54:47;;;;;;;12.27;4.30;;;19.20;73.20;;;;;;2341484;54;21027;-67
2021/05/28 08:57:13;;;;;;;5.78;3.65;;;19.30;73.40;;;;;;2335730;54;20986;-69
2021/05/28 08:59:39;;;;;;;8.32;4.40;;;19.30;73.50;;;;;;2338448;54;20963;-69
2021/05/28 09:02:33;;;;;;;7.32;4.68;;;19.40;73.50;;;;;;2337941;54;20951;-68
2021/05/28 09:05:21;;;;;;;6.03;3.90;;;19.50;71.90;;;;;;2382912;53;21018;-67
2021/05/28 09:07:58;;;;;;;9.13;4.45;;;19.60;72.10;;;;;;2583644;52;20941;-67
2021/05/28 09:10:43;;;;;;;6.70;4.43;;;19.70;72.20;;;;;;2583939;53;20974;-70
2021/05/28 09:13:17;;;;;;;5.75;4.12;;;19.70;70.90;;;;;;2343832;54;21043;-67
2021/05/28 09:15:49;;;;;;;7.62;4.12;;;19.70;71.60;;;;;;2329293;54;20998;-71
2021/05/28 09:18:16;;;;;;;6.32;4.30;;;19.80;71.70;;;;;;2591707;52;20955;-69
2021/05/28 09:20:48;;;;;;;6.85;4.50;;;19.80;72.00;;;;;;2335064;54;20941;-66
2021/05/28 09:23:23;;;;;;;7.23;4.10;;;19.90;71.80;;;;;;2410610;53;21021;-70
2021/05/28 09:26:14;;;;;;;7.80;4.60;;;19.90;72.00;;;;;;2345146;54;21511;-69
2021/05/28 09:28:44;;;;;;;7.12;4.80;;;20.00;71.20;;;;;;2335554;54;20997;-66
2021/05/28 09:31:22;;;;;;;6.03;4.32;;;20.10;71.80;;;;;;2583739;52;20992;-69
2021/05/28 09:33:51;;;;;;;6.55;3.92;;;20.10;70.70;;;;;;2338540;54;21033;-67
2021/05/28 09:36:24;;;;;;;6.95;3.90;;;20.10;71.20;;;;;;2338630;54;21390;-67
2021/05/28 09:39:25;;;;;;;5.53;4.00;;;20.20;70.50;;;;;;2337966;54;21029;-70
2021/05/28 09:41:57;;;;;;;5.95;3.97;;;20.20;68.90;;;;;;2347889;54;21819;-67
2021/05/28 09:44:27;;;;;;;6.78;3.65;;;20.20;70.30;;;;;;2326789;54;21034;-69
2021/05/28 09:47:26;;;;;;;6.65;4.43;;;20.20;70.60;;;;;;2324439;54;20990;-67
2021/05/28 09:49:54;;;;;;;5.70;4.05;;;20.20;68.30;;;;;;2338723;54;21026;-69
2021/05/28 09:52:28;;;;;;;6.47;3.90;;;20.30;71.00;;;;;;2337607;54;20932;-69
2021/05/28 09:55:05;;;;;;;7.72;3.60;;;20.30;70.40;;;;;;2338482;54;20954;-70
2021/05/28 09:58:35;;;;;;;5.20;3.60;;;20.40;70.10;;;;;;2315169;55;21065;-70
2021/05/28 10:01:10;;;;;;;4.93;3.42;;;20.40;70.20;;;;;;2551402;53;21074;-67
2021/05/28 10:03:38;;;;;;;5.47;3.40;;;20.50;69.40;;;;;;2338678;54;21057;-71
2021/05/28 10:06:04;;;;;;;5.93;3.45;;;20.60;70.70;;;;;;2338362;54;20930;-67
2021/05/28 10:08:31;;;;;;;5.35;3.60;;;20.60;70.50;;;;;;2315378;54;20962;-68
2021/05/28 10:10:59;;;;;;;6.75;3.35;;;20.60;70.60;;;;;;2583491;53;20965;-69
2021/05/28 10:13:26;;;;;;;12.37;4.35;;;20.70;70.70;;;;;;2341219;54;21026;-67
2021/05/28 10:15:53;;;;;;;4.32;3.10;;;20.80;70.60;;;;;;2327117;54;20982;-68
2021/05/28 10:18:20;;;;;;;5.82;3.22;;;20.80;70.50;;;;;;2329632;54;20922;-71
2021/05/28 10:20:49;;;;;;;4.57;3.10;;;20.90;70.70;;;;;;2338519;54;20968;-69
2021/05/28 10:23:19;;;;;;;15.63;4.30;;;21.00;70.30;;;;;;2338232;54;20922;-68
2021/05/28 10:25:46;;;;;;;8.15;3.30;;;21.00;69.40;;;;;;2339990;54;20934;-67
2021/05/28 10:28:18;;;;;;;4.70;3.22;;;21.10;69.60;;;;;;2339475;54;20970;-68
2021/05/28 10:30:46;;;;;;;4.35;2.95;;;21.20;69.10;;;;;;2336789;54;21422;-69
2021/05/28 10:34:16;;;;;;;5.57;3.45;;;21.20;69.50;;;;;;2337957;54;20902;-67
2021/05/28 10:36:42;;;;;;;5.43;3.10;;;21.30;66.80;;;;;;2379490;53;20950;-69
2021/05/28 10:39:10;;;;;;;6.80;2.78;;;21.30;68.90;;;;;;2389694;53;20989;-70
2021/05/28 10:41:38;;;;;;;4.80;3.08;;;21.30;68.50;;;;;;2338515;54;20988;-69
2021/05/28 10:44:06;;;;;;;5.87;2.97;;;21.30;68.20;;;;;;2338683;54;20954;-67
2021/05/28 10:46:37;;;;;;;5.47;3.45;;;21.30;68.20;;;;;;2338641;54;21571;-68
2021/05/28 10:49:09;;;;;;;5.65;3.08;;;21.30;68.50;;;;;;2584120;52;20957;-67
2021/05/28 10:53:09;;;;;;;4.43;3.00;;;21.30;68.10;;;;;;2344971;54;21875;-68
2021/05/28 10:56:00;;;;;;;5.18;2.65;;;21.40;67.60;;;;;;2584122;52;21018;-69
2021/05/28 10:58:54;;;;;;;4.20;2.72;;;21.40;66.60;;;;;;2338534;54;20958;-66
2021/05/28 11:03:13;;;;;;;7.30;3.03;;;21.50;66.80;;;;;;2338804;54;21021;-68
2021/05/28 11:05:46;;;;;;;4.50;2.55;;;21.50;66.40;;;;;;2342244;54;20938;-68
2021/05/28 11:08:40;;;;;;;4.60;2.90;;;21.50;67.90;;;;;;2341961;54;21001;-69
2021/05/28 11:11:06;;;;;;;5.95;2.80;;;21.50;66.60;;;;;;2338055;54;20957;-68
2021/05/28 11:13:59;;;;;;;4.80;2.90;;;21.50;68.40;;;;;;2376401;53;21413;-67
2021/05/28 11:16:25;;;;;;;4.90;2.95;;;21.60;66.20;;;;;;2341314;53;20921;-69
2021/05/28 11:18:52;;;;;;;4.28;2.67;;;21.60;68.20;;;;;;2334217;54;20949;-67
2021/05/28 11:21:20;;;;;;;7.90;3.17;;;21.60;68.00;;;;;;2337959;54;20977;-69
2021/05/28 11:23:49;;;;;;;5.07;2.95;;;21.60;67.80;;;;;;2338450;54;20974;-67
2021/05/28 11:26:26;;;;;;;5.32;2.87;;;21.60;67.80;;;;;;2338748;54;21040;-69
2021/05/28 11:28:57;;;;;;;5.65;2.78;;;21.60;66.40;;;;;;2338600;54;21009;-67
2021/05/28 11:37:03;;;;;;;6.32;2.87;;;21.70;66.40;;;;;;2582969;52;20267;-82
2021/05/28 11:39:50;;;;;;;4.60;2.78;;;21.70;67.70;;;;;;2341289;54;21001;-82
2021/05/28 11:43:46;;;;;;;3.95;2.42;;;21.70;66.80;;;;;;2580121;52;21032;-82
2021/05/28 11:46:27;;;;;;;4.57;2.28;;;21.70;67.60;;;;;;2586082;52;20946;-83
2021/05/28 11:51:06;;;;;;;4.40;2.70;;;21.80;66.80;;;;;;2581745;52;20928;-87
2021/05/28 11:53:55;;;;;;;4.32;2.65;;;21.90;67.00;;;;;;2582649;52;21013;-88
2021/05/28 11:56:28;;;;;;;3.53;2.42;;;21.90;66.00;;;;;;2584952;52;21887;-83
2021/05/28 11:59:22;;;;;;;4.05;2.55;;;21.90;67.90;;;;;;2579029;52;21021;-85
2021/05/28 12:02:13;;;;;;;4.32;2.62;;;21.90;67.80;;;;;;2574773;52;20948;-82
2021/05/28 12:04:45;;;;;;;4.28;2.72;;;21.90;67.80;;;;;;2341585;54;20965;-83
2021/05/28 12:07:21;;;;;;;6.00;3.10;;;22.00;67.80;;;;;;2585552;52;21031;-83
2021/05/28 12:10:04;;;;;;;5.75;2.58;;;22.00;67.60;;;;;;2553004;53;20993;-85
2021/05/28 12:12:52;;;;;;;4.20;2.35;;;22.00;65.80;;;;;;2340255;53;21499;-84
2021/05/28 12:15:36;;;;;;;5.65;3.30;;;22.10;65.60;;;;;;2586574;52;20929;-83
2021/05/28 12:21:49;;;;;;;4.72;2.60;;;22.10;66.00;;;;;;2586180;52;21626;-83
2021/05/28 12:24:21;;;;;;;3.95;2.15;;;22.00;66.50;;;;;;2583082;52;20958;-86
2021/05/28 12:26:50;;;;;;;3.83;2.50;;;22.30;68.40;;;;;;2580564;52;22012;-87
2021/05/28 12:29:18;;;;;;;5.10;3.00;;;22.30;67.60;;;;;;2553364;52;20950;-86
2021/05/28 12:31:44;;;;;;;6.18;3.35;;;22.40;67.60;;;;;;2585101;52;21356;-83
2021/05/28 12:34:11;;;;;;;5.05;2.90;;;22.40;67.00;;;;;;2585099;52;20929;-82
2021/05/28 12:37:01;;;;;;;4.90;2.80;;;22.40;66.70;;;;;;2582047;52;20912;-82
2021/05/28 12:39:29;;;;;;;4.05;2.30;;;22.40;64.50;;;;;;2338091;53;20934;-83
2021/05/28 12:41:56;;;;;;;4.40;2.20;;;22.40;66.90;;;;;;2583898;52;21635;-84
2021/05/28 12:44:23;;;;;;;4.85;2.28;;;22.40;66.80;;;;;;2340953;53;20925;-84
2021/05/28 12:46:58;;;;;;;4.95;2.70;;;22.50;66.90;;;;;;2580037;52;20936;-84
2021/05/28 12:49:31;;;;;;;4.00;2.65;;;22.50;65.40;;;;;;2340285;54;21052;-82
2021/05/28 12:52:16;;;;;;;4.45;2.50;;;22.50;65.30;;;;;;2583650;52;20965;-82
2021/05/28 12:55:00;;;;;;;3.97;2.45;;;22.60;64.70;;;;;;2341067;53;21115;-82
2021/05/28 12:57:27;;;;;;;5.18;2.47;;;22.60;66.20;;;;;;2343431;53;21012;-83
2021/05/28 13:00:01;;;;;;;3.87;2.35;;;22.60;65.90;;;;;;2338112;54;21010;-82
2021/05/28 13:02:30;;;;;;;3.97;2.20;;;22.60;65.50;;;;;;2338095;53;20938;-83
2021/05/28 13:05:19;;;;;;;4.15;2.28;;;22.60;65.40;;;;;;2349036;53;20953;-89
2021/05/28 13:07:48;;;;;;;3.17;1.83;;;22.60;63.30;;;;;;2583391;52;21510;-87
2021/05/28 13:12:08;;;;;;;3.30;2.00;;;22.60;65.10;;;;;;2349020;54;20968;-89
2021/05/28 13:14:56;;;;;;;3.25;1.60;;;22.60;63.60;;;;;;2348711;54;20975;-89
2021/05/28 13:17:38;;;;;;;5.03;2.05;;;22.70;64.70;;;;;;2356645;54;21498;-86
2021/05/28 13:20:53;;;;;;;3.85;2.20;;;22.70;65.90;;;;;;2552130;52;20988;-90
2021/05/28 13:23:36;;;;;;;5.03;2.37;;;22.80;65.60;;;;;;2583350;52;20923;-88
2021/05/28 13:26:17;;;;;;;4.30;2.08;;;22.90;65.50;;;;;;2586150;52;21108;-88
2021/05/28 13:28:56;;;;;;;3.75;1.80;;;22.90;65.30;;;;;;2559754;53;21063;-89
2021/05/28 13:31:31;;;;;;;3.80;2.20;;;23.00;65.40;;;;;;2584616;52;21513;-87
2021/05/28 13:34:09;;;;;;;4.43;2.47;;;23.10;65.10;;;;;;2584922;52;20972;-89
2021/05/28 13:36:48;;;;;;;3.60;2.37;;;23.10;63.50;;;;;;2582887;52;20926;-88
2021/05/28 13:39:18;;;;;;;3.70;2.40;;;23.10;64.70;;;;;;2586847;52;21357;-87
2021/05/28 13:41:50;;;;;;;3.83;2.20;;;23.10;64.90;;;;;;2580272;52;25533;-88
2021/05/28 13:44:36;;;;;;;4.28;2.47;;;23.00;64.20;;;;;;2572484;52;20943;-88
2021/05/28 13:47:05;;;;;;;5.40;2.45;;;23.20;64.80;;;;;;2574929;52;21530;-86
2021/05/28 13:49:46;;;;;;;3.78;2.05;;;23.20;64.70;;;;;;2582242;52;20949;-89
2021/05/28 13:52:36;;;;;;;3.85;2.05;;;23.30;64.10;;;;;;2581594;52;20998;-88
2021/05/28 13:55:23;;;;;;;7.12;2.53;;;23.30;63.70;;;;;;2348555;54;20940;-88
2021/05/28 13:57:52;;;;;;;4.50;2.50;;;23.30;63.50;;;;;;2588395;52;21032;-89
2021/05/28 14:03:29;;;;;;;4.07;2.53;;;23.40;64.70;;;;;;2585945;52;20957;-88
2021/05/28 14:06:06;;;;;;;4.28;2.45;;;23.40;64.50;;;;;;2585100;52;21020;-88
2021/05/28 14:08:44;;;;;;;4.15;2.55;;;23.50;64.50;;;;;;2585925;52;20971;-86
2021/05/28 14:11:20;;;;;;;5.90;2.47;;;23.50;64.20;;;;;;2586805;52;21366;-89
2021/05/28 14:13:50;;;;;;;4.32;2.47;;;23.50;64.20;;;;;;2589192;52;20917;-88
2021/05/28 14:16:19;;;;;;;3.67;2.28;;;23.50;64.10;;;;;;2588399;52;21399;-87
2021/05/28 14:18:55;;;;;;;4.43;2.55;;;23.50;63.30;;;;;;2591289;52;20930;-88
2021/05/28 14:21:31;;;;;;;4.30;2.47;;;23.60;63.90;;;;;;2587078;52;20964;-88
2021/05/28 14:23:58;;;;;;;;;;;23.60;63.90;;;;;;2592935;52;20912;-89
2021/05/28 14:26:24;;;;;;;4.78;1.95;;;23.60;62.80;;;;;;2589492;52;20043;-88
2021/05/28 14:28:54;;;;;;;3.87;2.42;;;23.60;64.90;;;;;;2559372;53;20914;-88
2021/05/28 14:31:22;;;;;;;4.70;2.28;;;23.70;64.40;;;;;;2591479;52;20941;-88
2021/05/28 14:33:57;;;;;;;4.12;2.20;;;23.70;64.00;;;;;;2586660;52;21532;-88
2021/05/28 14:36:26;;;;;;;3.65;1.70;;;23.80;64.20;;;;;;2557319;53;20957;-88
2021/05/28 14:38:56;;;;;;;3.75;2.10;;;23.80;64.10;;;;;;2558848;53;20942;-88
2021/05/28 14:41:23;;;;;;;3.90;2.17;;;23.80;64.20;;;;;;2557520;53;21825;-87
2021/05/28 14:43:51;;;;;;;4.75;2.10;;;23.90;64.00;;;;;;2589936;52;20926;-88
2021/05/28 14:46:18;;;;;;;3.08;1.60;;;23.90;63.70;;;;;;2345731;53;20944;-87
2021/05/28 14:48:47;;;;;;;3.15;1.70;;;23.90;64.00;;;;;;2590175;52;21247;-88
2021/05/28 14:51:14;;;;;;;3.35;1.65;;;23.90;64.00;;;;;;2585964;52;20977;-88
2021/05/28 14:53:41;;;;;;;3.53;1.90;;;24.00;63.80;;;;;;2591515;52;21748;-88
2021/05/28 14:56:08;;;;;;;3.35;1.90;;;24.00;63.50;;;;;;2347031;54;20951;-89
2021/05/28 14:58:34;;;;;;;2.85;1.73;;;24.00;63.30;;;;;;2583842;52;20945;-86
2021/05/28 15:01:01;;;;;;;2.80;1.58;;;24.10;63.10;;;;;;2590219;52;20922;-87
2021/05/28 15:03:31;;;;;;;4.07;1.40;;;24.00;62.30;;;;;;2589446;52;20946;-88
2021/05/28 15:05:57;;;;;;;3.03;1.52;;;24.00;62.30;;;;;;2588400;52;20948;-87
2021/05/28 15:08:24;;;;;;;2.60;1.52;;;24.00;62.30;;;;;;2581911;52;20965;-89
2021/05/28 15:10:51;;;;;;;2.92;1.70;;;23.80;62.20;;;;;;2583241;52;21430;-87
2021/05/28 15:13:18;;;;;;;4.68;1.70;;;23.90;62.40;;;;;;2584327;52;21963;-87
2021/05/28 15:15:50;;;;;;;3.12;1.52;;;23.90;62.10;;;;;;2582185;52;21431;-87
2021/05/28 15:18:17;;;;;;;2.62;1.42;;;23.90;61.80;;;;;;2586529;52;21006;-87
2021/05/28 15:20:44;;;;;;;3.05;1.70;;;23.80;61.70;;;;;;2586656;52;21210;-88
2021/05/28 15:23:11;;;;;;;2.87;1.67;;;23.80;61.80;;;;;;2590068;52;21013;-87
2021/05/28 15:25:38;;;;;;;3.50;1.60;;;23.80;61.70;;;;;;2586132;52;21487;-87
2021/05/28 15:28:10;;;;;;;2.87;1.42;;;23.70;61.50;;;;;;2585749;52;20997;-87
2021/05/28 15:30:43;;;;;;;2.50;1.33;;;23.70;61.50;;;;;;2589743;52;20916;-88
2021/05/28 15:33:56;;;;;;;3.50;1.58;;;23.60;61.40;;;;;;2575420;52;21055;-89
2021/05/28 15:36:33;;;;;;;3.10;1.60;;;23.50;58.70;;;;;;2340989;53;21372;-88
2021/05/28 15:39:15;;;;;;;3.08;1.40;;;23.60;60.30;;;;;;2590715;52;20956;-87
2021/05/28 15:42:07;;;;;;;3.53;1.20;;;23.40;60.40;;;;;;2590987;52;20940;-88
2021/05/28 15:44:51;;;;;;;4.20;1.20;;;23.50;60.00;;;;;;2589713;52;20969;-88
2021/05/28 15:47:25;;;;;;;2.42;1.37;;;23.40;60.60;;;;;;2578576;52;21136;-82
2021/05/28 15:49:55;;;;;;;2.97;1.30;;;23.20;60.20;;;;;;2585139;52;20926;-84